createdAt,value
2018-06-01T00:01:40.530Z,58.60
2018-06-01T00:04:08.705Z,58.70
2018-06-01T00:06:36.571Z,59.10
2018-06-01T00:09:04.336Z,58.90
2018-06-01T00:11:32.811Z,58.60
2018-06-01T00:14:02.864Z,58.80
2018-06-01T00:20:07.174Z,59.00
2018-06-01T00:22:34.942Z,58.40
2018-06-01T00:25:02.732Z,58.60
2018-06-01T00:27:31.284Z,59.60
2018-06-01T00:29:59.057Z,58.90
2018-06-01T00:32:26.702Z,58.70
2018-06-01T00:34:54.483Z,58.80
2018-06-01T00:37:22.234Z,58.50
2018-06-01T00:39:50.418Z,58.70
2018-06-01T00:42:18.594Z,58.40
2018-06-01T00:44:46.463Z,58.90
2018-06-01T00:47:14.625Z,59.10
2018-06-01T00:49:42.480Z,59.30
2018-06-01T00:52:10.250Z,59.50
2018-06-01T00:54:50.708Z,59.40
2018-06-01T00:57:18.670Z,59.80
2018-06-01T00:59:46.331Z,59.90
2018-06-01T01:02:15.036Z,60.50
2018-06-01T01:04:42.895Z,61.10
2018-06-01T01:07:10.686Z,60.90
2018-06-01T01:09:38.521Z,61.70
2018-06-01T01:12:06.297Z,61.70
2018-06-01T01:14:34.560Z,62.50
2018-06-01T01:17:03.165Z,62.80
2018-06-01T01:19:32.454Z,63.30
2018-06-01T01:22:00.604Z,62.90
2018-06-01T01:24:28.486Z,62.90
2018-06-01T01:26:56.245Z,62.60
2018-06-01T01:29:24.520Z,62.50
2018-06-01T01:31:52.289Z,62.80
2018-06-01T01:34:20.874Z,62.90
2018-06-01T01:36:48.637Z,63.30
2018-06-01T01:39:16.494Z,63.10
2018-06-01T01:41:44.270Z,63.30
2018-06-01T01:44:12.434Z,63.40
2018-06-01T01:46:40.710Z,63.50
2018-06-01T01:49:08.574Z,64.20
2018-06-01T01:51:36.344Z,64.20
2018-06-01T01:54:04.528Z,63.90
2018-06-01T01:56:32.373Z,63.60
2018-06-01T01:59:00.552Z,63.60
2018-06-01T02:01:29.140Z,63.60
2018-06-01T02:03:57.001Z,63.80
2018-06-01T02:06:24.770Z,64.00
2018-06-01T02:08:52.531Z,64.30
2018-06-01T02:11:20.289Z,64.40
2018-06-01T02:13:48.469Z,64.30
2018-06-01T02:16:16.641Z,64.20
2018-06-01T02:18:44.286Z,64.30
2018-06-01T02:21:12.367Z,64.30
2018-06-01T02:23:40.538Z,64.30
2018-06-01T02:26:08.304Z,64.40
2018-06-01T02:28:36.589Z,65.20
2018-06-01T02:31:04.350Z,65.80
2018-06-01T02:33:32.511Z,65.40
2018-06-01T02:36:00.171Z,65.50
2018-06-01T02:38:28.766Z,65.20
2018-06-01T02:40:56.526Z,65.00
2018-06-01T02:43:25.014Z,65.10
2018-06-01T02:45:52.775Z,65.50
2018-06-01T02:48:20.526Z,65.80
2018-06-01T02:50:48.316Z,65.70
2018-06-01T02:53:16.475Z,65.90
2018-06-01T02:55:44.522Z,66.40
2018-06-01T02:58:12.599Z,66.50
2018-06-01T03:00:40.473Z,67.00
2018-06-01T03:03:08.679Z,66.70
2018-06-01T03:05:36.616Z,67.00
2018-06-01T03:08:04.447Z,66.80
2018-06-01T03:10:32.656Z,66.40
2018-06-01T03:13:00.309Z,66.50
2018-06-01T03:15:28.486Z,66.20
2018-06-01T03:17:56.670Z,66.30
2018-06-01T03:20:24.316Z,66.70
2018-06-01T03:22:52.487Z,67.20
2018-06-01T03:25:20.560Z,67.20
2018-06-01T03:27:48.222Z,67.40
2018-06-01T03:30:17.535Z,67.50
2018-06-01T03:32:45.295Z,67.70
2018-06-01T03:35:13.052Z,67.70
2018-06-01T03:37:40.915Z,67.60
2018-06-01T03:40:08.681Z,67.70
2018-06-01T03:42:36.456Z,68.40
2018-06-01T03:45:04.629Z,68.50
2018-06-01T03:47:32.486Z,68.80
2018-06-01T03:50:00.681Z,68.00
2018-06-01T03:52:28.531Z,67.80
2018-06-01T03:54:56.300Z,67.60
2018-06-01T03:57:24.350Z,67.70
2018-06-01T03:59:53.363Z,69.10
2018-06-01T04:02:21.123Z,67.80
2018-06-01T04:04:50.412Z,67.80
2018-06-01T04:07:18.694Z,67.30
2018-06-01T04:09:46.346Z,66.50
2018-06-01T04:12:14.421Z,66.40
2018-06-01T04:14:43.010Z,66.50
2018-06-01T04:17:10.767Z,66.40
2018-06-01T04:19:38.945Z,66.60
2018-06-01T04:22:06.908Z,66.80
2018-06-01T04:24:34.585Z,66.50
2018-06-01T04:27:02.445Z,66.60
2018-06-01T04:29:30.609Z,66.50
2018-06-01T04:31:58.258Z,66.00
2018-06-01T04:34:26.453Z,65.80
2018-06-01T04:36:54.723Z,66.10
2018-06-01T04:39:22.485Z,65.60
2018-06-01T04:41:50.546Z,65.70
2018-06-01T04:44:18.320Z,65.80
2018-06-01T04:46:46.499Z,65.50
2018-06-01T04:49:14.738Z,65.60
2018-06-01T04:51:43.151Z,66.30
2018-06-01T04:54:10.805Z,65.60
2018-06-01T04:56:38.569Z,65.70
2018-06-01T04:59:06.432Z,65.50
2018-06-01T05:01:34.607Z,65.20
2018-06-01T05:04:02.514Z,65.80
2018-06-01T05:06:30.738Z,65.80
2018-06-01T05:08:58.616Z,65.60
2018-06-01T05:11:26.263Z,65.20
2018-06-01T05:13:54.551Z,65.10
2018-06-01T05:16:22.199Z,64.90
2018-06-01T05:18:50.686Z,64.60
2018-06-01T05:21:19.376Z,64.80
2018-06-01T05:26:16.637Z,64.10
2018-06-01T05:28:44.413Z,64.20
2018-06-01T05:31:12.468Z,64.20
2018-06-01T05:33:41.476Z,65.30
2018-06-01T05:36:09.237Z,64.50
2018-06-01T05:38:37.015Z,64.60
2018-06-01T05:41:05.673Z,65.20
2018-06-01T05:43:33.472Z,64.80
2018-06-01T05:46:01.103Z,64.30
2018-06-01T05:48:28.877Z,64.10
2018-06-01T05:50:57.054Z,64.40
2018-06-01T05:53:24.666Z,64.60
2018-06-01T05:55:52.361Z,64.90
2018-06-01T05:58:20.551Z,64.40
2018-06-01T06:00:48.606Z,64.40
2018-06-01T06:03:16.365Z,64.40
2018-06-01T06:05:44.650Z,65.20
2018-06-01T06:08:12.514Z,65.00
2018-06-01T06:10:41.622Z,64.60
2018-06-01T06:13:09.479Z,64.10
2018-06-01T06:15:37.346Z,64.00
2018-06-01T06:18:05.207Z,64.00
2018-06-01T06:20:32.961Z,63.60
2018-06-01T06:23:00.771Z,63.60
2018-06-01T06:25:28.706Z,64.10
2018-06-01T06:27:56.661Z,63.80
2018-06-01T06:30:24.447Z,63.60
2018-06-01T06:32:52.501Z,63.50
2018-06-01T06:35:20.678Z,63.30
2018-06-01T06:37:49.467Z,63.50
2018-06-01T06:40:17.114Z,63.70
2018-06-01T06:42:44.968Z,64.00
2018-06-01T06:45:12.642Z,62.90
2018-06-01T06:47:40.831Z,63.40
2018-06-01T06:50:08.712Z,63.20
2018-06-01T06:52:36.486Z,62.90
2018-06-01T06:55:04.630Z,62.90
2018-06-01T06:57:32.495Z,62.70
2018-06-01T07:00:00.557Z,63.00
2018-06-01T07:02:28.434Z,62.40
2018-06-01T07:04:56.698Z,61.70
2018-06-01T07:07:25.493Z,62.30
2018-06-01T07:09:53.141Z,61.40
2018-06-01T07:12:21.501Z,60.60
2018-06-01T07:14:49.105Z,60.20
2018-06-01T07:17:18.397Z,60.30
2018-06-01T07:19:46.569Z,60.00
2018-06-01T07:22:14.865Z,60.30
2018-06-01T07:24:43.138Z,59.60
2018-06-01T07:27:11.407Z,58.60
2018-06-01T07:29:39.575Z,58.60
2018-06-01T07:32:07.343Z,59.10
2018-06-01T07:34:35.196Z,59.40
2018-06-01T07:37:03.043Z,59.20
2018-06-01T07:39:30.954Z,59.00
2018-06-01T07:41:58.893Z,59.60
2018-06-01T07:44:26.549Z,59.70
2018-06-01T07:46:54.626Z,58.70
2018-06-01T07:49:22.391Z,58.20
2018-06-01T07:51:50.457Z,58.60
2018-06-01T07:54:18.737Z,57.90
2018-06-01T07:56:46.506Z,57.40
2018-06-01T07:59:14.664Z,56.90
2018-06-01T08:01:43.158Z,56.60
2018-06-01T08:04:11.021Z,55.90
2018-06-01T08:06:38.882Z,54.50
2018-06-01T08:09:06.754Z,54.30
2018-06-01T08:11:35.344Z,55.80
2018-06-01T08:14:03.406Z,54.30
2018-06-01T08:16:31.179Z,54.40
2018-06-01T08:18:59.139Z,53.70
2018-06-01T08:21:26.939Z,53.40
2018-06-01T08:23:55.058Z,54.00
2018-06-01T08:26:22.830Z,53.30
2018-06-01T08:28:50.705Z,53.30
2018-06-01T08:31:18.472Z,53.20
2018-06-01T08:33:46.740Z,52.50
2018-06-01T08:36:14.401Z,52.50
2018-06-01T08:38:42.457Z,50.90
2018-06-01T08:41:11.363Z,49.80
2018-06-01T08:43:39.234Z,48.00
2018-06-01T08:46:07.095Z,47.50
2018-06-01T08:48:34.853Z,47.00
2018-06-01T08:51:02.618Z,46.40
2018-06-01T08:53:30.682Z,47.30
2018-06-01T08:55:58.456Z,45.90
2018-06-01T08:58:26.632Z,45.20
2018-06-01T09:00:54.391Z,45.50
2018-06-01T09:03:22.570Z,45.30
2018-06-01T09:05:50.630Z,44.30
2018-06-01T09:08:18.394Z,44.70
2018-06-01T09:10:46.775Z,45.50
2018-06-01T09:13:14.551Z,43.90
2018-06-01T09:15:42.730Z,43.10
2018-06-01T09:18:10.579Z,43.80
2018-06-01T09:20:38.760Z,41.50
2018-06-01T09:23:06.706Z,42.70
2018-06-01T09:25:34.895Z,41.90
2018-06-01T09:28:02.549Z,42.30
2018-06-01T09:30:31.139Z,42.50
2018-06-01T09:32:58.902Z,42.90
2018-06-01T09:35:26.565Z,41.80
2018-06-01T09:37:54.739Z,41.40
2018-06-01T09:40:22.690Z,42.10
2018-06-01T09:42:50.356Z,42.30
2018-06-01T09:45:18.541Z,42.00
2018-06-01T09:47:46.718Z,41.00
2018-06-01T09:50:14.474Z,40.20
2018-06-01T09:52:42.530Z,40.80
2018-06-01T09:55:10.713Z,40.90
2018-06-01T09:57:38.894Z,40.60
2018-06-01T10:05:53.598Z,40.20
2018-06-01T10:08:21.447Z,40.30
2018-06-01T10:10:49.218Z,39.70
2018-06-01T10:13:16.874Z,38.70
2018-06-01T10:15:44.742Z,39.40
2018-06-01T10:18:12.941Z,40.20
2018-06-01T10:20:41.591Z,39.90
2018-06-01T10:23:09.466Z,39.70
2018-06-01T10:25:37.232Z,38.50
2018-06-01T10:28:05.190Z,39.10
2018-06-01T10:30:32.975Z,38.40
2018-06-01T10:33:00.899Z,37.10
2018-06-01T10:35:28.710Z,36.50
2018-06-01T10:37:56.563Z,38.10
2018-06-01T10:40:24.737Z,37.70
2018-06-01T10:42:52.500Z,36.90
2018-06-01T10:45:20.728Z,37.30
2018-06-01T10:47:49.353Z,37.00
2018-06-01T10:50:17.103Z,35.80
2018-06-01T10:52:44.885Z,36.10
2018-06-01T10:55:12.679Z,36.20
2018-06-01T10:57:40.515Z,37.60
2018-06-01T11:00:08.693Z,36.80
2018-06-01T11:02:36.330Z,36.10
2018-06-01T11:05:04.615Z,35.20
2018-06-01T11:07:32.394Z,36.00
2018-06-01T11:10:00.443Z,36.40
2018-06-01T11:12:28.628Z,37.60
2018-06-01T11:14:56.424Z,36.30
2018-06-01T11:17:24.606Z,36.00
2018-06-01T11:19:53.146Z,36.40
2018-06-01T11:22:21.023Z,35.70
2018-06-01T11:24:48.780Z,36.40
2018-06-01T11:27:16.560Z,36.30
2018-06-01T11:29:44.748Z,36.10
2018-06-01T11:32:12.923Z,37.40
2018-06-01T11:34:41.561Z,37.50
2018-06-01T11:37:09.443Z,38.40
2018-06-01T11:39:38.630Z,37.40
2018-06-01T11:42:06.434Z,35.60
2018-06-01T11:44:34.594Z,37.10
2018-06-01T11:47:02.757Z,36.50
2018-06-01T11:49:30.637Z,36.80
2018-06-01T11:51:58.805Z,34.00
2018-06-01T11:54:26.841Z,33.20
2018-06-01T11:56:55.049Z,32.30
2018-06-01T11:59:22.893Z,34.60
2018-06-01T12:01:50.771Z,32.70
2018-06-01T12:04:18.646Z,33.00
2018-06-01T12:06:46.785Z,33.40
2018-06-01T12:09:14.591Z,33.40
2018-06-01T12:11:42.857Z,33.30
2018-06-01T12:14:10.705Z,32.90
2018-06-01T12:16:38.872Z,33.20
2018-06-01T12:19:07.048Z,32.20
2018-06-01T12:21:34.833Z,31.60
2018-06-01T12:24:02.786Z,32.10
2018-06-01T12:26:30.751Z,31.80
2018-06-01T12:28:58.612Z,32.30
2018-06-01T12:31:26.788Z,30.90
2018-06-01T12:33:54.673Z,31.60
2018-06-01T12:36:22.521Z,31.90
2018-06-01T12:38:50.679Z,30.60
2018-06-01T12:41:18.455Z,31.00
2018-06-01T12:43:46.729Z,30.50
2018-06-01T12:46:14.529Z,31.50
2018-06-01T12:48:42.658Z,31.80
2018-06-01T12:51:10.537Z,31.20
2018-06-01T12:53:38.802Z,31.30
2018-06-01T12:56:06.575Z,31.60
2018-06-01T12:58:34.743Z,31.20
2018-06-01T13:01:02.519Z,32.40
2018-06-01T13:03:30.891Z,32.60
2018-06-01T13:05:58.745Z,31.40
2018-06-01T13:08:26.399Z,33.40
2018-06-01T13:10:55.317Z,34.80
2018-06-01T13:13:23.054Z,30.80
2018-06-01T13:15:50.921Z,32.60
2018-06-01T13:18:18.705Z,31.20
2018-06-01T13:20:46.891Z,30.80
2018-06-01T13:23:14.638Z,31.60
2018-06-01T13:25:43.509Z,31.80
2018-06-01T13:28:11.218Z,31.00
2018-06-01T13:33:08.557Z,31.90
2018-06-01T13:35:36.926Z,31.50
2018-06-01T13:38:05.519Z,31.40
2018-06-01T13:40:33.276Z,31.30
2018-06-01T13:43:01.153Z,30.60
2018-06-01T13:45:29.007Z,31.80
2018-06-01T13:47:56.770Z,31.30
2018-06-01T13:50:24.963Z,31.70
2018-06-01T13:52:52.818Z,32.50
2018-06-01T13:55:20.459Z,31.40
2018-06-01T13:57:49.460Z,31.30
2018-06-01T14:00:17.233Z,31.20
2018-06-01T14:02:44.877Z,30.80
2018-06-01T14:05:12.655Z,29.80
2018-06-01T14:07:40.815Z,29.90
2018-06-01T14:10:08.600Z,30.30
2018-06-01T14:12:36.765Z,30.00
2018-06-01T14:15:04.627Z,30.40
2018-06-01T14:17:33.613Z,30.60
2018-06-01T14:20:01.389Z,31.40
2018-06-01T14:22:29.134Z,32.20
2018-06-01T14:24:56.915Z,31.60
2018-06-01T14:27:24.679Z,30.60
2018-06-01T14:29:52.740Z,31.10
2018-06-01T14:32:20.605Z,31.50
2018-06-01T14:34:48.795Z,31.50
2018-06-01T14:37:16.966Z,31.20
2018-06-01T14:39:44.730Z,31.40
2018-06-01T14:42:12.420Z,31.60
2018-06-01T14:44:40.660Z,31.60
2018-06-01T14:47:08.863Z,32.40
2018-06-01T14:49:36.637Z,32.20
2018-06-01T14:52:04.865Z,32.30
2018-06-01T14:54:32.742Z,32.50
2018-06-01T14:57:00.504Z,32.20
2018-06-01T14:59:28.672Z,33.10
2018-06-01T15:01:56.318Z,33.50
2018-06-01T15:04:25.031Z,33.20
2018-06-01T15:06:52.927Z,33.90
2018-06-01T15:09:21.663Z,35.20
2018-06-01T15:11:49.458Z,33.60
2018-06-01T15:14:17.193Z,32.90
2018-06-01T15:16:44.965Z,32.40
2018-06-01T15:19:12.947Z,32.60
2018-06-01T15:21:40.896Z,32.40
2018-06-01T15:24:08.650Z,31.90
2018-06-01T15:26:36.297Z,31.40
2018-06-01T15:29:04.799Z,32.20
2018-06-01T15:31:32.577Z,31.30
2018-06-01T15:34:00.788Z,32.30
2018-06-01T15:36:29.219Z,32.70
2018-06-01T15:38:56.862Z,31.50
2018-06-01T15:41:24.635Z,31.60
2018-06-01T15:43:52.817Z,32.00
2018-06-01T15:46:20.477Z,32.00
2018-06-01T15:48:48.653Z,32.10
2018-06-01T15:51:16.714Z,32.50
2018-06-01T15:53:44.375Z,33.80
2018-06-01T15:56:13.280Z,35.70
2018-06-01T15:58:41.051Z,36.00
2018-06-01T16:01:09.519Z,36.70
2018-06-01T16:03:37.278Z,36.70
2018-06-01T16:06:05.465Z,36.30
2018-06-01T16:08:33.223Z,37.40
2018-06-01T16:11:00.988Z,38.40
2018-06-01T16:13:28.664Z,39.20
2018-06-01T16:15:56.907Z,39.70
2018-06-01T16:18:24.782Z,40.90
2018-06-01T16:20:52.662Z,41.60
2018-06-01T16:23:20.841Z,41.80
2018-06-01T16:25:48.609Z,42.00
2018-06-01T16:28:16.753Z,41.40
2018-06-01T16:30:44.625Z,41.80
2018-06-01T16:33:12.807Z,42.20
2018-06-01T16:35:40.582Z,43.10
2018-06-01T16:38:08.938Z,43.30
2018-06-01T16:40:36.905Z,43.90
2018-06-01T16:43:04.686Z,44.80
2018-06-01T16:45:32.738Z,45.10
2018-06-01T16:48:00.922Z,45.30
2018-06-01T16:50:28.681Z,45.70
2018-06-01T16:52:56.883Z,45.80
2018-06-01T16:55:24.723Z,45.90
2018-06-01T16:57:52.583Z,46.00
2018-06-01T17:00:21.168Z,45.50
2018-06-01T17:02:48.922Z,46.00
2018-06-01T17:05:16.695Z,46.20
2018-06-01T17:07:44.962Z,46.60
2018-06-01T17:10:12.848Z,47.30
2018-06-01T17:12:40.710Z,48.00
2018-06-01T17:15:08.489Z,49.10
2018-06-01T17:17:36.646Z,49.50
2018-06-01T17:20:04.697Z,49.50
2018-06-01T17:22:32.504Z,49.40
2018-06-01T17:25:00.766Z,49.70
2018-06-01T17:29:58.847Z,49.40
2018-06-01T17:32:26.699Z,49.60
2018-06-01T17:34:54.763Z,50.10
2018-06-01T17:37:22.628Z,50.20
2018-06-01T17:39:51.158Z,50.50
2018-06-01T17:42:19.595Z,52.20
2018-06-01T17:44:49.012Z,51.50
2018-06-01T17:47:17.904Z,51.30
2018-06-01T17:49:45.761Z,51.70
2018-06-01T17:52:13.533Z,51.50
2018-06-01T17:54:41.394Z,51.50
2018-06-01T17:57:09.262Z,51.00
2018-06-01T17:59:37.014Z,50.40
2018-06-01T18:02:04.792Z,50.60
2018-06-01T18:04:32.644Z,49.90
2018-06-01T18:07:00.818Z,49.60
2018-06-01T18:09:29.002Z,49.50
2018-06-01T18:11:56.634Z,49.00
2018-06-01T18:14:24.718Z,49.40
2018-06-01T18:16:52.507Z,49.70
2018-06-01T18:19:20.675Z,50.20
2018-06-01T18:21:48.835Z,50.70
2018-06-01T18:24:17.315Z,52.10
2018-06-01T18:26:44.967Z,53.30
2018-06-01T18:29:12.639Z,53.00
2018-06-01T18:31:40.830Z,53.40
2018-06-01T18:34:08.620Z,53.60
2018-06-01T18:36:36.952Z,54.50
2018-06-01T18:39:05.425Z,54.80
2018-06-01T18:41:33.234Z,55.10
2018-06-01T18:44:02.467Z,55.60
2018-06-01T18:46:30.765Z,55.50
2018-06-01T18:48:58.542Z,56.10
2018-06-01T18:51:26.727Z,56.50
2018-06-01T18:53:54.900Z,56.00
2018-06-01T18:56:22.973Z,55.90
2018-06-01T18:58:50.722Z,56.20
2018-06-01T19:01:18.881Z,56.40
2018-06-01T19:03:46.686Z,56.70
2018-06-01T19:06:14.952Z,56.90
2018-06-01T19:08:43.550Z,58.60
2018-06-01T19:11:12.931Z,57.90
2018-06-01T19:13:40.666Z,58.00
2018-06-01T19:16:08.973Z,57.90
2018-06-01T19:18:36.843Z,58.30
2018-06-01T19:21:04.782Z,58.40
2018-06-01T19:23:33.756Z,58.40
2018-06-01T19:26:01.636Z,58.30
2018-06-01T19:28:30.929Z,58.30
2018-06-01T19:30:58.705Z,58.30
2018-06-01T19:33:26.988Z,58.50
2018-06-01T19:35:54.852Z,58.50
2018-06-01T19:38:22.722Z,58.30
2018-06-01T19:40:50.910Z,58.70
2018-06-01T19:43:19.083Z,58.90
2018-06-01T19:45:47.651Z,59.50
2018-06-01T19:48:15.403Z,58.60
2018-06-01T19:50:43.175Z,58.60
2018-06-01T19:53:11.028Z,58.50
2018-06-01T19:55:39.212Z,58.70
2018-06-01T19:58:07.069Z,58.70
2018-06-01T20:00:34.959Z,58.90
2018-06-01T20:03:02.699Z,58.50
2018-06-01T20:05:30.860Z,58.50
2018-06-01T20:07:58.739Z,58.30
2018-06-01T20:10:26.912Z,58.40
2018-06-01T20:12:54.788Z,58.20
2018-06-01T20:15:22.557Z,58.00
2018-06-01T20:17:50.613Z,58.10
2018-06-01T20:20:18.679Z,58.00
2018-06-01T20:22:46.955Z,58.00
2018-06-01T20:25:14.713Z,58.20
2018-06-01T20:27:42.816Z,58.30
2018-06-01T20:30:10.757Z,58.70
2018-06-01T20:32:38.541Z,58.50
2018-06-01T20:35:06.706Z,58.60
2018-06-01T20:37:34.862Z,58.40
2018-06-01T20:40:02.527Z,58.70
2018-06-01T20:42:30.722Z,58.80
2018-06-01T20:44:58.987Z,58.90
2018-06-01T20:47:26.774Z,59.20
2018-06-01T20:49:55.155Z,59.20
2018-06-01T20:52:22.995Z,58.90
2018-06-01T20:54:50.744Z,59.10
2018-06-01T20:57:18.812Z,59.20
2018-06-01T20:59:46.698Z,59.00
2018-06-01T21:02:14.861Z,59.20
2018-06-01T21:04:42.727Z,59.50
2018-06-01T21:07:10.902Z,59.80
2018-06-01T21:09:39.057Z,59.90
2018-06-01T21:12:06.835Z,59.80
2018-06-01T21:14:34.603Z,59.80
2018-06-01T21:17:02.673Z,59.80
2018-06-01T21:19:30.730Z,59.70
2018-06-01T21:21:59.630Z,59.70
2018-06-01T21:24:27.287Z,59.50
2018-06-01T21:26:55.071Z,59.60
2018-06-01T21:31:52.721Z,59.90
2018-06-01T21:34:20.921Z,59.70
2018-06-01T21:36:48.683Z,60.10
2018-06-01T21:39:16.842Z,60.60
2018-06-01T21:41:44.809Z,60.60
2018-06-01T21:44:12.577Z,60.90
2018-06-01T21:46:41.427Z,60.90
2018-06-01T21:49:09.249Z,61.00
2018-06-01T21:51:37.101Z,61.20
2018-06-01T21:54:04.867Z,61.40
2018-06-01T21:56:33.363Z,61.50
2018-06-01T21:59:01.214Z,61.90
2018-06-01T22:01:28.983Z,62.50
2018-06-01T22:06:26.646Z,62.50
2018-06-01T22:08:54.818Z,62.90
2018-06-01T22:11:22.596Z,63.10
2018-06-01T22:13:50.759Z,63.20
2018-06-01T22:16:19.052Z,63.00
2018-06-01T22:18:46.801Z,62.80
2018-06-01T22:21:14.577Z,62.50
2018-06-01T22:23:42.744Z,63.30
2018-06-01T22:26:10.803Z,63.10
2018-06-01T22:28:38.567Z,63.10
2018-06-01T22:31:06.644Z,63.10
2018-06-01T22:33:34.697Z,62.80
2018-06-01T22:36:02.879Z,63.40
2018-06-01T22:38:30.752Z,63.60
2018-06-01T22:40:58.914Z,63.70
2018-06-01T22:43:26.780Z,64.10
2018-06-01T22:45:54.847Z,63.80
2018-06-01T22:48:22.710Z,63.60
2018-06-01T22:50:50.992Z,64.10
2018-06-01T22:53:18.747Z,64.00
2018-06-01T22:55:46.941Z,64.10
2018-06-01T22:58:14.758Z,64.40
2018-06-01T23:00:42.866Z,64.90
2018-06-01T23:03:10.733Z,65.20
2018-06-01T23:05:38.909Z,65.20
2018-06-01T23:08:06.554Z,65.50
2018-06-01T23:10:34.640Z,65.90
2018-06-01T23:13:02.810Z,66.10
2018-06-01T23:15:31.811Z,65.40
2018-06-01T23:17:59.572Z,65.80
2018-06-01T23:20:27.432Z,66.30
2018-06-01T23:22:55.190Z,66.70
2018-06-01T23:25:22.970Z,66.60
2018-06-01T23:27:50.850Z,66.60
2018-06-01T23:30:18.593Z,66.80
2018-06-01T23:32:46.779Z,66.80
2018-06-01T23:35:15.031Z,67.40
2018-06-01T23:37:42.689Z,67.30
2018-06-01T23:40:10.897Z,67.70
2018-06-01T23:42:38.633Z,67.70
2018-06-01T23:45:07.425Z,67.90
2018-06-01T23:47:35.182Z,68.00
2018-06-01T23:50:02.963Z,68.20
2018-06-01T23:55:00.527Z,69.30
2018-06-01T23:57:28.714Z,69.70
2018-06-01T23:59:56.766Z,69.60
